createdAt,value
2018-06-02T00:01:25.540Z,19.30
2018-06-02T00:03:54.660Z,19.30
2018-06-02T00:06:23.745Z,19.30
2018-06-02T00:08:52.810Z,19.30
2018-06-02T00:11:21.209Z,19.30
2018-06-02T00:13:49.652Z,19.30
2018-06-02T00:16:17.988Z,19.30
2018-06-02T00:18:46.587Z,19.30
2018-06-02T00:21:15.679Z,19.30
2018-06-02T00:23:44.750Z,19.30
2018-06-02T00:26:13.130Z,19.30
2018-06-02T00:28:41.459Z,19.30
2018-06-02T00:31:09.822Z,19.30
2018-06-02T00:33:38.912Z,19.30
2018-06-02T00:36:07.260Z,19.30
2018-06-02T00:38:35.581Z,19.30
2018-06-02T00:41:03.938Z,19.30
2018-06-02T00:43:32.250Z,19.30
2018-06-02T00:46:01.334Z,19.20
2018-06-02T00:48:29.665Z,19.20
2018-06-02T00:50:57.996Z,19.20
2018-06-02T00:53:26.341Z,19.10
2018-06-02T00:55:54.647Z,19.10
2018-06-02T00:58:23.007Z,19.10
2018-06-02T01:00:51.315Z,19.10
2018-06-02T01:03:21.165Z,19.10
2018-06-02T01:05:50.257Z,19.10
2018-06-02T01:08:19.378Z,19.00
2018-06-02T01:10:47.707Z,19.00
2018-06-02T01:13:16.059Z,19.00
2018-06-02T01:15:44.385Z,19.00
2018-06-02T01:18:12.704Z,18.90
2018-06-02T01:20:41.078Z,18.90
2018-06-02T01:23:10.186Z,18.80
2018-06-02T01:25:38.553Z,18.80
2018-06-02T01:28:07.647Z,18.70
2018-06-02T01:30:37.531Z,18.70
2018-06-02T01:33:05.918Z,18.70
2018-06-02T01:35:34.290Z,18.70
2018-06-02T01:38:02.598Z,18.70
2018-06-02T01:40:31.712Z,18.70
2018-06-02T01:43:00.780Z,18.60
2018-06-02T01:45:29.202Z,18.60
2018-06-02T01:47:57.506Z,18.70
2018-06-02T01:50:25.838Z,18.70
2018-06-02T01:52:54.721Z,18.70
2018-06-02T01:55:23.071Z,18.70
2018-06-02T01:57:51.432Z,18.70
2018-06-02T02:00:19.741Z,18.70
2018-06-02T02:02:48.117Z,18.70
2018-06-02T02:05:16.425Z,18.70
2018-06-02T02:07:46.306Z,18.70
2018-06-02T02:10:14.637Z,18.70
2018-06-02T02:12:43.036Z,18.70
2018-06-02T02:15:12.131Z,18.60
2018-06-02T02:17:40.510Z,18.60
2018-06-02T02:20:08.818Z,18.60
2018-06-02T02:22:37.156Z,18.60
2018-06-02T02:25:05.463Z,18.60
2018-06-02T02:27:34.578Z,18.50
2018-06-02T02:30:02.901Z,18.50
2018-06-02T02:32:31.241Z,18.50
2018-06-02T02:34:59.594Z,18.50
2018-06-02T02:37:27.946Z,18.50
2018-06-02T02:39:56.298Z,18.50
2018-06-02T02:42:24.621Z,18.40
2018-06-02T02:44:53.001Z,18.40
2018-06-02T02:47:21.329Z,18.50
2018-06-02T02:49:49.670Z,18.50
2018-06-02T02:52:18.003Z,18.40
2018-06-02T02:54:46.325Z,18.40
2018-06-02T02:57:14.720Z,18.40
2018-06-02T02:59:43.087Z,18.40
2018-06-02T03:02:11.413Z,18.40
2018-06-02T03:04:39.786Z,18.40
2018-06-02T03:07:08.863Z,18.40
2018-06-02T03:09:37.193Z,18.30
2018-06-02T03:12:05.534Z,18.30
2018-06-02T03:14:33.869Z,18.30
2018-06-02T03:17:02.996Z,18.30
2018-06-02T03:19:31.343Z,18.30
2018-06-02T03:21:59.697Z,18.30
2018-06-02T03:24:28.794Z,18.20
2018-06-02T03:26:57.888Z,18.20
2018-06-02T03:29:26.208Z,18.20
2018-06-02T03:31:54.569Z,18.20
2018-06-02T03:34:22.891Z,18.20
2018-06-02T03:36:51.230Z,18.20
2018-06-02T03:39:20.329Z,18.20
2018-06-02T03:41:49.403Z,18.20
2018-06-02T03:44:17.761Z,18.20
2018-06-02T03:46:46.098Z,18.20
2018-06-02T03:49:15.201Z,18.20
2018-06-02T03:51:43.530Z,18.20
2018-06-02T03:54:11.867Z,18.20
2018-06-02T03:56:40.232Z,18.20
2018-06-02T03:59:09.365Z,18.30
2018-06-02T04:01:37.671Z,18.30
2018-06-02T04:04:05.975Z,18.40
2018-06-02T04:06:34.317Z,18.40
2018-06-02T04:09:02.711Z,18.50
2018-06-02T04:11:31.049Z,18.50
2018-06-02T04:13:59.376Z,18.50
2018-06-02T04:16:28.389Z,18.60
2018-06-02T04:18:56.702Z,18.60
2018-06-02T04:21:26.511Z,18.60
2018-06-02T04:23:54.876Z,18.60
2018-06-02T04:26:23.630Z,18.70
2018-06-02T04:28:51.978Z,18.70
2018-06-02T04:31:21.215Z,18.70
2018-06-02T04:33:49.594Z,18.80
2018-06-02T04:36:17.910Z,18.80
2018-06-02T04:38:46.251Z,18.90
2018-06-02T04:41:14.666Z,18.90
2018-06-02T04:43:43.042Z,19.00
2018-06-02T04:46:11.362Z,19.10
2018-06-02T04:48:39.715Z,19.10
2018-06-02T04:51:08.823Z,19.20
2018-06-02T04:53:38.208Z,19.20
2018-06-02T04:56:06.543Z,19.20
2018-06-02T04:58:34.915Z,19.30
2018-06-02T05:01:04.018Z,19.40
2018-06-02T05:03:33.141Z,19.40
2018-06-02T05:06:01.523Z,19.40
2018-06-02T05:08:29.861Z,19.50
2018-06-02T05:10:58.219Z,19.50
2018-06-02T05:13:26.533Z,19.60
2018-06-02T05:15:55.644Z,19.60
2018-06-02T05:18:24.026Z,19.60
2018-06-02T05:20:52.367Z,19.70
2018-06-02T05:23:20.684Z,19.80
2018-06-02T05:25:49.790Z,20.00
2018-06-02T05:28:19.194Z,20.00
2018-06-02T05:30:47.575Z,20.10
2018-06-02T05:33:15.889Z,20.20
2018-06-02T05:35:44.263Z,20.30
2018-06-02T05:38:12.606Z,20.30
2018-06-02T05:40:41.701Z,20.40
2018-06-02T05:43:10.059Z,20.40
2018-06-02T05:45:38.390Z,20.50
2018-06-02T05:48:06.747Z,20.60
2018-06-02T05:50:35.874Z,20.70
2018-06-02T05:53:04.239Z,20.60
2018-06-02T05:55:33.365Z,20.70
2018-06-02T05:58:01.729Z,20.70
2018-06-02T06:00:30.819Z,20.80
2018-06-02T06:02:59.945Z,20.80
2018-06-02T06:05:28.260Z,20.70
2018-06-02T06:07:56.573Z,20.80
2018-06-02T06:10:25.705Z,20.90
2018-06-02T06:12:54.042Z,20.90
2018-06-02T06:15:22.381Z,20.90
2018-06-02T06:17:50.712Z,20.90
2018-06-02T06:20:19.058Z,21.10
2018-06-02T06:22:47.375Z,21.20
2018-06-02T06:25:15.747Z,21.40
2018-06-02T06:27:44.123Z,21.60
2018-06-02T06:30:12.467Z,21.80
2018-06-02T06:32:40.803Z,22.00
2018-06-02T06:35:09.914Z,22.10
2018-06-02T06:37:38.258Z,22.10
2018-06-02T06:40:06.598Z,22.10
2018-06-02T06:42:34.925Z,22.10
2018-06-02T06:45:03.268Z,22.10
2018-06-02T06:47:31.639Z,22.10
2018-06-02T06:50:00.053Z,22.10
2018-06-02T06:52:29.206Z,22.00
2018-06-02T06:54:58.298Z,21.90
2018-06-02T06:57:28.171Z,21.90
2018-06-02T06:59:56.490Z,21.80
2018-06-02T07:02:25.985Z,21.70
2018-06-02T07:04:54.503Z,21.70
2018-06-02T07:07:23.615Z,21.60
2018-06-02T07:09:52.052Z,21.60
2018-06-02T07:12:20.661Z,21.60
2018-06-02T07:14:49.757Z,21.70
2018-06-02T07:17:18.356Z,21.70
2018-06-02T07:19:46.830Z,21.80
2018-06-02T07:22:15.161Z,21.90
2018-06-02T07:24:43.514Z,22.20
2018-06-02T07:27:12.378Z,22.40
2018-06-02T07:29:40.702Z,22.50
2018-06-02T07:32:09.049Z,22.50
2018-06-02T07:34:37.403Z,22.50
2018-06-02T07:37:05.750Z,22.50
2018-06-02T07:39:34.126Z,22.40
2018-06-02T07:42:02.541Z,22.40
2018-06-02T07:44:30.883Z,22.30
2018-06-02T07:46:59.233Z,22.20
2018-06-02T07:49:27.592Z,22.20
2018-06-02T07:51:55.938Z,22.10
2018-06-02T07:54:25.063Z,22.20
2018-06-02T07:56:53.980Z,22.20
2018-06-02T07:59:22.316Z,22.30
2018-06-02T08:01:50.656Z,22.50
2018-06-02T08:04:18.992Z,22.80
2018-06-02T08:06:47.346Z,23.00
2018-06-02T08:09:16.447Z,23.50
2018-06-02T08:11:45.528Z,23.70
2018-06-02T08:14:13.871Z,23.60
2018-06-02T08:16:42.202Z,23.90
2018-06-02T08:19:11.310Z,24.10
2018-06-02T08:21:39.673Z,24.10
2018-06-02T08:24:08.766Z,24.30
2018-06-02T08:26:37.121Z,24.30
2018-06-02T08:29:05.497Z,24.30
2018-06-02T08:31:33.902Z,24.10
2018-06-02T08:34:02.227Z,24.10
2018-06-02T08:36:33.210Z,24.10
2018-06-02T08:39:05.763Z,24.00
2018-06-02T08:41:34.128Z,23.90
2018-06-02T08:44:02.489Z,23.90
2018-06-02T08:46:30.828Z,23.80
2018-06-02T08:48:59.909Z,23.60
2018-06-02T08:51:28.282Z,23.50
2018-06-02T08:53:56.614Z,23.50
2018-06-02T08:56:24.937Z,23.40
2018-06-02T08:58:53.902Z,23.40
2018-06-02T09:01:22.233Z,23.30
2018-06-02T09:03:50.556Z,23.20
2018-06-02T09:06:18.913Z,23.10
2018-06-02T09:08:47.233Z,23.10
2018-06-02T09:11:15.563Z,23.00
2018-06-02T09:13:43.941Z,23.00
2018-06-02T09:16:12.326Z,23.00
2018-06-02T09:18:40.652Z,23.00
2018-06-02T09:21:08.975Z,23.00
2018-06-02T09:23:37.318Z,22.90
2018-06-02T09:26:05.672Z,22.80
2018-06-02T09:28:33.994Z,22.70
2018-06-02T09:31:03.105Z,22.50
2018-06-02T09:33:32.198Z,22.50
2018-06-02T09:36:01.282Z,22.60
2018-06-02T09:38:30.406Z,22.60
2018-06-02T09:40:58.839Z,22.60
2018-06-02T09:43:28.229Z,22.60
2018-06-02T09:45:56.564Z,22.60
2018-06-02T09:48:25.995Z,22.70
2018-06-02T09:50:54.335Z,22.60
2018-06-02T09:53:30.942Z,22.60
2018-06-02T09:55:59.317Z,22.70
2018-06-02T09:58:28.578Z,22.60
2018-06-02T10:00:56.901Z,22.70
2018-06-02T10:03:27.624Z,22.70
2018-06-02T10:05:56.030Z,22.70
2018-06-02T10:08:25.321Z,22.70
2018-06-02T10:10:53.805Z,22.60
2018-06-02T10:13:22.445Z,22.50
2018-06-02T10:15:51.239Z,22.40
2018-06-02T10:18:20.695Z,22.30
2018-06-02T10:20:49.089Z,22.20
2018-06-02T10:23:17.444Z,22.10
2018-06-02T10:25:46.794Z,22.00
2018-06-02T10:28:15.172Z,21.90
2018-06-02T10:30:43.524Z,21.90
2018-06-02T10:33:12.451Z,22.00
2018-06-02T10:35:41.462Z,22.00
2018-06-02T10:38:10.725Z,22.00
2018-06-02T10:40:39.870Z,22.10
2018-06-02T10:43:08.231Z,22.00
2018-06-02T10:45:36.586Z,22.10
2018-06-02T10:48:06.533Z,22.10
2018-06-02T10:50:34.936Z,22.10
2018-06-02T10:53:03.246Z,22.10
2018-06-02T10:55:32.142Z,22.10
2018-06-02T10:58:01.466Z,22.00
2018-06-02T11:00:29.854Z,22.00
2018-06-02T11:02:58.543Z,21.90
2018-06-02T11:05:26.906Z,21.80
2018-06-02T11:07:56.045Z,21.50
2018-06-02T11:10:24.402Z,21.40
2018-06-02T11:12:53.555Z,21.20
2018-06-02T11:15:23.109Z,21.10
2018-06-02T11:17:52.257Z,21.10
2018-06-02T11:20:20.605Z,21.00
2018-06-02T11:22:48.995Z,21.10
2018-06-02T11:25:18.026Z,21.10
2018-06-02T11:27:46.465Z,21.10
2018-06-02T11:30:14.822Z,21.20
2018-06-02T11:32:43.159Z,21.20
2018-06-02T11:35:11.519Z,21.30
2018-06-02T11:37:39.838Z,21.30
2018-06-02T11:40:08.167Z,21.40
2018-06-02T11:42:37.644Z,21.50
2018-06-02T11:45:06.101Z,21.50
2018-06-02T11:47:35.062Z,21.50
2018-06-02T11:50:03.374Z,21.60
2018-06-02T11:52:31.735Z,21.70
2018-06-02T11:55:00.087Z,21.90
2018-06-02T11:57:29.203Z,22.30
2018-06-02T11:59:57.567Z,22.30
2018-06-02T12:02:25.894Z,22.60
2018-06-02T12:04:54.251Z,23.00
2018-06-02T12:07:22.584Z,23.30
2018-06-02T12:09:50.907Z,23.70
2018-06-02T12:12:20.042Z,24.30
2018-06-02T12:14:48.387Z,24.20
2018-06-02T12:17:17.510Z,24.70
2018-06-02T12:19:45.851Z,24.60
2018-06-02T12:22:14.203Z,24.80
2018-06-02T12:24:43.167Z,25.00
2018-06-02T12:27:13.179Z,25.30
2018-06-02T12:29:41.502Z,25.30
2018-06-02T12:32:09.865Z,25.40
2018-06-02T12:34:38.217Z,25.40
2018-06-02T12:37:07.346Z,25.60
2018-06-02T12:39:35.684Z,25.50
2018-06-02T12:42:04.796Z,25.80
2018-06-02T12:44:33.189Z,25.80
2018-06-02T12:47:01.538Z,25.90
2018-06-02T12:49:29.920Z,26.00
2018-06-02T12:51:58.240Z,26.10
2018-06-02T12:54:26.555Z,26.10
2018-06-02T12:56:55.193Z,26.10
2018-06-02T12:59:24.287Z,26.10
2018-06-02T13:01:53.377Z,26.10
2018-06-02T13:04:24.115Z,26.00
2018-06-02T13:06:52.529Z,26.00
2018-06-02T13:09:20.951Z,26.00
2018-06-02T13:11:50.294Z,25.80
2018-06-02T13:14:19.921Z,25.80
2018-06-02T13:16:52.044Z,25.70
2018-06-02T13:19:22.059Z,25.70
2018-06-02T13:21:53.220Z,25.60
2018-06-02T13:24:22.713Z,25.50
2018-06-02T13:26:52.425Z,25.30
2018-06-02T13:29:21.828Z,25.30
2018-06-02T13:31:50.823Z,25.20
2018-06-02T13:34:20.222Z,25.00
2018-06-02T13:36:49.530Z,24.90
2018-06-02T13:39:19.408Z,24.60
2018-06-02T13:41:47.833Z,24.60
2018-06-02T13:44:16.289Z,24.50
2018-06-02T13:46:44.639Z,24.30
2018-06-02T13:49:13.739Z,24.00
2018-06-02T13:51:42.829Z,23.90
2018-06-02T13:54:12.867Z,23.70
2018-06-02T13:56:41.969Z,23.70
2018-06-02T13:59:11.058Z,23.60
2018-06-02T14:01:40.191Z,23.50
2018-06-02T14:04:08.532Z,23.50
2018-06-02T14:06:37.634Z,23.50
2018-06-02T14:09:06.727Z,23.40
2018-06-02T14:11:35.836Z,23.40
2018-06-02T14:14:04.377Z,23.40
2018-06-02T14:16:32.694Z,23.40
2018-06-02T14:19:01.789Z,23.30
2018-06-02T14:21:30.904Z,23.40
2018-06-02T14:24:00.005Z,23.40
2018-06-02T14:26:28.435Z,23.40
2018-06-02T14:28:56.821Z,23.40
2018-06-02T14:31:25.173Z,23.40
2018-06-02T14:33:53.543Z,23.50
2018-06-02T14:36:21.898Z,23.60
2018-06-02T14:38:50.997Z,24.00
2018-06-02T14:41:20.139Z,24.20
2018-06-02T14:43:48.501Z,24.20
2018-06-02T14:46:17.149Z,24.40
2018-06-02T14:48:45.476Z,24.50
2018-06-02T14:51:13.829Z,24.60
2018-06-02T14:53:42.156Z,24.50
2018-06-02T14:56:10.486Z,24.50
2018-06-02T14:58:38.844Z,24.40
2018-06-02T15:01:07.188Z,24.30
2018-06-02T15:03:35.497Z,24.20
2018-06-02T15:06:03.859Z,24.10
2018-06-02T15:08:32.220Z,24.10
2018-06-02T15:11:01.317Z,24.00
2018-06-02T15:13:29.690Z,24.00
2018-06-02T15:15:58.805Z,24.10
2018-06-02T15:18:27.927Z,24.10
2018-06-02T15:20:56.270Z,24.10
2018-06-02T15:23:25.356Z,24.00
2018-06-02T15:25:53.725Z,24.00
2018-06-02T15:28:22.058Z,24.00
2018-06-02T15:30:50.443Z,23.80
2018-06-02T15:33:18.770Z,23.70
2018-06-02T15:35:47.119Z,23.50
2018-06-02T15:38:15.478Z,23.40
2018-06-02T15:40:44.610Z,23.20
2018-06-02T15:43:12.955Z,23.10
2018-06-02T15:45:42.034Z,23.00
2018-06-02T15:48:11.195Z,23.00
2018-06-02T15:50:39.564Z,23.00
2018-06-02T15:53:07.939Z,23.00
2018-06-02T15:55:36.258Z,23.00
2018-06-02T15:58:04.626Z,23.00
2018-06-02T16:00:33.005Z,23.10
2018-06-02T16:03:01.350Z,23.10
2018-06-02T16:05:31.145Z,23.00
2018-06-02T16:07:59.503Z,22.90
2018-06-02T16:10:29.119Z,22.90
2018-06-02T16:12:57.538Z,22.90
2018-06-02T16:15:26.057Z,22.80
2018-06-02T16:17:54.630Z,22.70
2018-06-02T16:20:23.765Z,22.70
2018-06-02T16:22:52.143Z,22.60
2018-06-02T16:25:20.715Z,22.60
2018-06-02T16:27:50.110Z,22.50
2018-06-02T16:30:18.487Z,22.40
2018-06-02T16:32:46.855Z,22.40
2018-06-02T16:35:16.918Z,22.30
2018-06-02T16:37:45.315Z,22.30
2018-06-02T16:40:15.386Z,22.30
2018-06-02T16:42:43.694Z,22.30
2018-06-02T16:45:13.273Z,22.30
2018-06-02T16:47:41.600Z,22.30
2018-06-02T16:50:09.972Z,22.20
2018-06-02T16:52:38.298Z,22.20
2018-06-02T16:55:07.383Z,22.10
2018-06-02T16:57:35.747Z,22.10
2018-06-02T17:00:04.077Z,22.00
2018-06-02T17:02:33.178Z,21.90
2018-06-02T17:05:01.506Z,21.80
2018-06-02T17:07:30.239Z,21.80
2018-06-02T17:09:59.374Z,21.70
2018-06-02T17:12:27.708Z,21.60
2018-06-02T17:14:56.068Z,21.60
2018-06-02T17:17:24.403Z,21.50
2018-06-02T17:19:52.783Z,21.40
2018-06-02T17:22:21.918Z,21.40
2018-06-02T17:24:50.272Z,21.30
2018-06-02T17:27:18.591Z,21.30
2018-06-02T17:29:46.951Z,21.30
2018-06-02T17:32:15.321Z,21.30
2018-06-02T17:34:43.666Z,21.20
2018-06-02T17:37:12.796Z,21.10
2018-06-02T17:39:41.142Z,21.10
2018-06-02T17:42:09.561Z,21.10
2018-06-02T17:44:38.008Z,21.10
2018-06-02T17:47:06.367Z,21.10
2018-06-02T17:49:34.714Z,21.10
2018-06-02T17:52:03.136Z,21.00
2018-06-02T17:54:31.536Z,21.00
2018-06-02T17:57:00.846Z,21.00
2018-06-02T17:59:30.223Z,21.00
2018-06-02T18:01:59.341Z,21.00
2018-06-02T18:04:28.460Z,21.00
2018-06-02T18:06:57.602Z,21.00
2018-06-02T18:09:26.113Z,20.90
2018-06-02T18:11:55.731Z,21.00
2018-06-02T18:14:24.514Z,20.90
2018-06-02T18:16:53.737Z,21.00
2018-06-02T18:19:22.861Z,20.90
2018-06-02T18:21:51.188Z,20.90
2018-06-02T18:24:19.989Z,20.90
2018-06-02T18:26:49.861Z,20.90
2018-06-02T18:29:18.476Z,20.90
2018-06-02T18:31:46.980Z,20.90
2018-06-02T18:34:16.949Z,20.70
2018-06-02T18:36:45.714Z,20.70
2018-06-02T18:39:14.585Z,20.70
2018-06-02T18:41:44.291Z,20.60
2018-06-02T18:44:13.597Z,20.60
2018-06-02T18:46:43.792Z,20.60
2018-06-02T18:49:12.315Z,20.60
2018-06-02T18:51:41.437Z,20.50
2018-06-02T18:54:10.905Z,20.50
2018-06-02T18:56:39.257Z,20.40
2018-06-02T18:59:07.614Z,20.40
2018-06-02T19:01:36.888Z,20.40
2018-06-02T19:04:05.373Z,20.40
2018-06-02T19:06:34.061Z,20.30
2018-06-02T19:09:03.250Z,20.30
2018-06-02T19:11:32.070Z,20.30
2018-06-02T19:14:01.224Z,20.30
2018-06-02T19:16:33.087Z,20.20
2018-06-02T19:19:01.700Z,20.30
2018-06-02T19:21:31.517Z,20.20
2018-06-02T19:24:00.004Z,20.20
2018-06-02T19:26:29.926Z,20.20
2018-06-02T19:29:32.170Z,20.20
2018-06-02T19:32:02.762Z,20.20
2018-06-02T19:34:33.214Z,20.20
2018-06-02T19:37:04.188Z,20.20
2018-06-02T19:39:34.818Z,20.10
2018-06-02T19:42:06.447Z,20.10
2018-06-02T19:44:37.392Z,20.10
2018-06-02T19:47:08.763Z,20.10
2018-06-02T19:49:39.499Z,20.10
2018-06-02T19:52:09.006Z,20.10
2018-06-02T19:54:38.930Z,20.00
2018-06-02T19:57:08.498Z,20.00
2018-06-02T19:59:39.375Z,20.00
2018-06-02T20:02:09.467Z,20.00
2018-06-02T20:04:39.392Z,20.00
2018-06-02T20:07:08.817Z,20.00
2018-06-02T20:09:38.208Z,19.90
2018-06-02T20:12:07.834Z,19.90
2018-06-02T20:14:37.690Z,19.90
2018-06-02T20:17:07.057Z,19.90
2018-06-02T20:19:36.376Z,19.90
2018-06-02T20:22:05.684Z,19.90
2018-06-02T20:24:35.109Z,19.90
2018-06-02T20:27:05.390Z,19.90
2018-06-02T20:29:34.834Z,19.80
2018-06-02T20:32:04.258Z,19.80
2018-06-02T20:34:33.618Z,19.80
2018-06-02T20:37:03.095Z,19.80
2018-06-02T20:39:32.429Z,19.80
2018-06-02T20:42:02.638Z,19.80
2018-06-02T20:44:32.091Z,19.80
2018-06-02T20:49:32.150Z,19.80
2018-06-02T20:52:02.994Z,19.70
2018-06-02T20:54:32.527Z,19.70
2018-06-02T20:57:03.315Z,19.70
2018-06-02T20:59:32.730Z,19.70
2018-06-02T21:02:04.816Z,19.70
2018-06-02T21:04:34.570Z,19.70
2018-06-02T21:07:05.341Z,19.70
2018-06-02T21:09:34.696Z,19.70
2018-06-02T21:12:05.308Z,19.70
2018-06-02T21:14:34.709Z,19.70
2018-06-02T21:17:04.474Z,19.70
2018-06-02T21:19:33.977Z,19.60
2018-06-02T21:22:03.688Z,19.60
2018-06-02T21:24:33.025Z,19.60
2018-06-02T21:27:02.742Z,19.60
2018-06-02T21:29:32.269Z,19.60
2018-06-02T21:32:03.012Z,19.60
2018-06-02T21:34:32.629Z,19.60
2018-06-02T21:37:02.987Z,19.60
2018-06-02T21:39:32.532Z,19.60
2018-06-02T21:44:31.019Z,19.60
2018-06-02T21:47:00.389Z,19.60
2018-06-02T21:49:29.748Z,19.50
2018-06-02T21:51:59.009Z,19.50
2018-06-02T21:54:28.418Z,19.50
2018-06-02T21:56:57.756Z,19.50
2018-06-02T21:59:27.111Z,19.50
2018-06-02T22:01:56.492Z,19.50
2018-06-02T22:04:25.869Z,19.50
2018-06-02T22:06:55.269Z,19.50
2018-06-02T22:09:24.599Z,19.50
2018-06-02T22:14:22.852Z,19.50
2018-06-02T22:16:52.319Z,19.40
2018-06-02T22:19:21.713Z,19.40
2018-06-02T22:21:51.814Z,19.40
2018-06-02T22:24:21.214Z,19.40
2018-06-02T22:29:19.390Z,19.40
2018-06-02T22:31:48.671Z,19.40
2018-06-02T22:34:17.985Z,19.40
2018-06-02T22:36:47.331Z,19.40
2018-06-02T22:39:16.679Z,19.40
2018-06-02T22:41:46.009Z,19.50
2018-06-02T22:44:15.365Z,19.50
2018-06-02T22:46:44.698Z,19.50
2018-06-02T22:49:14.013Z,19.40
2018-06-02T22:51:54.455Z,19.40
2018-06-02T22:54:23.986Z,19.50
2018-06-02T22:56:53.368Z,19.50
2018-06-02T22:59:22.902Z,19.40
2018-06-02T23:01:52.479Z,19.40
2018-06-02T23:04:21.762Z,19.40
2018-06-02T23:06:51.187Z,19.40
2018-06-02T23:09:20.599Z,19.40
2018-06-02T23:11:49.879Z,19.40
2018-06-02T23:16:47.968Z,19.40
2018-06-02T23:19:17.255Z,19.40
2018-06-02T23:21:46.638Z,19.40
2018-06-02T23:24:15.903Z,19.40
2018-06-02T23:26:45.345Z,19.40
2018-06-02T23:29:14.675Z,19.30
2018-06-02T23:31:44.067Z,19.30
2018-06-02T23:34:13.315Z,19.40
2018-06-02T23:36:42.582Z,19.30
2018-06-02T23:39:12.856Z,19.40
2018-06-02T23:41:42.111Z,19.30
2018-06-02T23:44:11.458Z,19.30
2018-06-02T23:46:40.796Z,19.40
2018-06-02T23:49:10.121Z,19.30
2018-06-02T23:51:39.429Z,19.40
2018-06-02T23:54:08.766Z,19.30
2018-06-02T23:56:38.074Z,19.40
2018-06-02T23:59:07.394Z,19.30
